createdAt,value
2023-01-18T00:02:49.319Z,1.83
2023-01-18T00:05:51.719Z,2.30
2023-01-18T00:08:55.247Z,2.03
2023-01-18T00:11:57.680Z,2.40
2023-01-18T00:15:00.097Z,2.63
2023-01-18T00:18:03.058Z,2.60
2023-01-18T00:21:07.272Z,2.13
2023-01-18T00:24:11.730Z,2.53
2023-01-18T00:27:14.261Z,1.70
2023-01-18T00:30:18.068Z,2.30
2023-01-18T00:33:20.714Z,1.52
2023-01-18T00:36:23.178Z,2.05
2023-01-18T00:39:25.620Z,1.87
2023-01-18T00:42:46.295Z,2.20
2023-01-18T00:45:48.804Z,1.80
2023-01-18T00:48:52.348Z,1.70
2023-01-18T00:51:56.781Z,1.77
2023-01-18T00:55:04.248Z,1.80
2023-01-18T00:58:06.661Z,1.70
2023-01-18T01:01:10.167Z,1.20
2023-01-18T01:04:30.997Z,1.83
2023-01-18T01:07:33.383Z,1.65
2023-01-18T01:10:36.075Z,1.60
2023-01-18T01:13:57.613Z,2.50
2023-01-18T01:17:18.599Z,1.90
2023-01-18T01:20:40.576Z,2.03
2023-01-18T01:24:01.328Z,2.17
2023-01-18T01:27:03.751Z,1.50
2023-01-18T01:30:07.574Z,2.40
2023-01-18T01:33:09.965Z,2.45
2023-01-18T01:36:17.540Z,2.63
2023-01-18T01:39:19.962Z,1.95
2023-01-18T01:42:22.370Z,1.43
2023-01-18T01:45:26.804Z,1.60
2023-01-18T01:48:29.396Z,1.42
2023-01-18T01:51:32.826Z,2.15
2023-01-18T01:54:42.849Z,1.95
2023-01-18T01:57:53.390Z,1.80
2023-01-18T02:00:55.953Z,2.22
2023-01-18T02:04:00.506Z,1.83
2023-01-18T02:07:02.956Z,2.13
2023-01-18T02:10:06.332Z,2.50
2023-01-18T02:13:10.072Z,2.00
2023-01-18T02:16:24.842Z,1.65
2023-01-18T02:19:59.412Z,1.73
2023-01-18T02:23:32.235Z,2.10
2023-01-18T02:26:59.529Z,2.00
2023-01-18T02:30:16.898Z,1.53
2023-01-18T02:33:51.728Z,1.33
2023-01-18T02:37:04.378Z,1.52
2023-01-18T02:40:16.174Z,1.48
2023-01-18T02:43:37.978Z,1.23
2023-01-18T02:46:40.815Z,1.77
2023-01-18T02:49:43.704Z,1.30
2023-01-18T02:52:53.615Z,1.38
2023-01-18T02:56:00.300Z,1.33
2023-01-18T02:59:10.396Z,1.63
2023-01-18T03:02:21.319Z,1.40
2023-01-18T03:05:24.784Z,1.50
2023-01-18T03:08:30.314Z,1.73
2023-01-18T03:12:05.616Z,2.10
2023-01-18T03:15:13.080Z,1.05
2023-01-18T03:18:15.583Z,2.20
2023-01-18T03:21:18.050Z,1.10
2023-01-18T03:24:20.532Z,1.52
2023-01-18T03:27:41.399Z,1.48
2023-01-18T03:31:03.496Z,1.67
2023-01-18T03:34:24.314Z,1.67
2023-01-18T03:37:30.579Z,1.10
2023-01-18T03:40:33.208Z,0.82
2023-01-18T03:43:37.895Z,1.00
2023-01-18T03:46:40.803Z,1.00
2023-01-18T03:49:43.246Z,1.27
2023-01-18T03:52:48.904Z,1.25
2023-01-18T03:55:53.878Z,1.27
2023-01-18T03:58:58.206Z,2.05
2023-01-18T04:02:01.559Z,1.85
2023-01-18T04:05:05.943Z,0.87
2023-01-18T04:08:08.381Z,2.15
2023-01-18T04:11:10.892Z,1.77
2023-01-18T04:14:13.262Z,2.03
2023-01-18T04:17:15.877Z,3.42
2023-01-18T04:20:18.457Z,3.10
2023-01-18T04:23:20.953Z,2.95
2023-01-18T04:26:23.358Z,2.78
2023-01-18T04:29:25.810Z,2.08
2023-01-18T04:32:28.978Z,3.30
2023-01-18T04:35:31.326Z,3.43
2023-01-18T04:38:33.863Z,3.53
2023-01-18T04:41:36.285Z,3.20
2023-01-18T04:44:38.720Z,3.85
2023-01-18T04:47:41.144Z,4.47
2023-01-18T04:50:46.519Z,2.80
2023-01-18T04:53:48.917Z,3.42
2023-01-18T04:56:51.902Z,3.40
2023-01-18T04:59:54.310Z,3.85
2023-01-18T05:02:57.217Z,2.65
2023-01-18T05:05:59.759Z,2.90
2023-01-18T05:09:02.197Z,2.63
2023-01-18T05:12:04.637Z,4.45
2023-01-18T05:15:07.709Z,7.60
2023-01-18T05:18:10.185Z,6.75
2023-01-18T05:21:13.391Z,13.13
2023-01-18T05:24:15.916Z,10.90
2023-01-18T05:27:18.482Z,5.68
2023-01-18T05:30:21.070Z,5.20
2023-01-18T05:33:23.469Z,3.78
2023-01-18T05:36:25.937Z,4.03
2023-01-18T05:39:28.641Z,3.88
2023-01-18T05:42:31.087Z,4.18
2023-01-18T05:45:33.536Z,6.28
2023-01-18T05:48:36.131Z,3.50
2023-01-18T05:51:38.705Z,3.70
2023-01-18T05:54:41.071Z,3.38
2023-01-18T05:57:43.507Z,3.90
2023-01-18T06:00:45.954Z,4.25
2023-01-18T06:03:48.394Z,4.90
2023-01-18T06:06:50.834Z,4.53
2023-01-18T06:09:53.275Z,4.47
2023-01-18T06:12:56.152Z,4.82
2023-01-18T06:16:00.047Z,5.10
2023-01-18T06:19:02.709Z,4.88
2023-01-18T06:22:05.123Z,4.73
2023-01-18T06:25:09.946Z,12.23
2023-01-18T06:28:12.408Z,14.35
2023-01-18T06:31:15.220Z,12.40
2023-01-18T06:34:18.044Z,13.77
2023-01-18T06:37:20.485Z,8.00
2023-01-18T06:40:22.868Z,7.50
2023-01-18T06:43:25.316Z,9.20
2023-01-18T06:46:27.955Z,7.60
2023-01-18T06:49:31.146Z,7.10
2023-01-18T06:52:33.590Z,6.87
2023-01-18T06:55:36.041Z,6.85
2023-01-18T06:58:38.559Z,6.40
2023-01-18T07:01:41.515Z,7.60
2023-01-18T07:04:45.498Z,6.70
2023-01-18T07:07:47.951Z,6.20
2023-01-18T07:10:52.664Z,5.53
2023-01-18T07:13:55.370Z,6.35
2023-01-18T07:16:57.917Z,6.30
2023-01-18T07:20:00.407Z,5.80
2023-01-18T07:23:04.429Z,5.80
2023-01-18T07:26:11.060Z,6.80
2023-01-18T07:29:13.508Z,6.40
2023-01-18T07:32:16.361Z,5.93
2023-01-18T07:35:22.113Z,6.88
2023-01-18T07:38:25.336Z,6.63
2023-01-18T07:41:29.465Z,5.47
2023-01-18T07:44:32.809Z,4.20
2023-01-18T07:47:36.894Z,4.22
2023-01-18T07:50:39.729Z,3.70
2023-01-18T07:53:42.568Z,3.73
2023-01-18T07:56:45.855Z,2.63
2023-01-18T07:59:49.409Z,2.58
2023-01-18T08:02:53.643Z,2.70
2023-01-18T08:05:59.046Z,1.35
2023-01-18T08:09:01.687Z,1.70
2023-01-18T08:12:06.771Z,0.98
2023-01-18T08:15:09.693Z,0.70
2023-01-18T08:18:12.973Z,1.40
2023-01-18T08:21:16.106Z,0.70
2023-01-18T08:24:19.487Z,0.77
2023-01-18T08:27:22.605Z,1.83
2023-01-18T08:30:28.110Z,0.90
2023-01-18T08:33:30.666Z,0.40
2023-01-18T08:36:33.292Z,0.38
2023-01-18T08:39:37.692Z,0.57
2023-01-18T08:42:40.145Z,0.40
2023-01-18T08:45:42.618Z,0.73
2023-01-18T08:48:45.500Z,1.10
2023-01-18T08:51:48.199Z,1.08
2023-01-18T08:54:50.776Z,1.10
2023-01-18T08:57:57.819Z,1.27
2023-01-18T09:01:00.406Z,1.10
2023-01-18T09:04:02.877Z,0.90
2023-01-18T09:07:05.421Z,1.35
2023-01-18T09:10:09.129Z,1.27
2023-01-18T09:13:11.911Z,0.50
2023-01-18T09:16:14.607Z,4.05
2023-01-18T09:19:17.126Z,3.70
2023-01-18T09:22:19.688Z,6.55
2023-01-18T09:25:22.776Z,3.03
2023-01-18T09:28:25.327Z,7.50
2023-01-18T09:31:28.690Z,1.27
2023-01-18T09:34:31.184Z,0.68
2023-01-18T09:37:33.765Z,0.63
2023-01-18T09:40:44.149Z,1.80
2023-01-18T09:43:52.576Z,0.20
2023-01-18T09:47:10.955Z,0.40
2023-01-18T09:50:17.730Z,0.65
2023-01-18T09:53:28.414Z,0.75
2023-01-18T09:56:50.228Z,0.00
2023-01-18T09:59:59.994Z,0.00
2023-01-18T10:03:10.250Z,0.00
2023-01-18T10:06:18.237Z,0.35
2023-01-18T10:09:30.188Z,0.17
2023-01-18T10:12:55.957Z,0.30
2023-01-18T10:15:58.793Z,0.35
2023-01-18T10:19:01.704Z,0.45
2023-01-18T10:22:25.636Z,0.73
2023-01-18T10:25:35.017Z,0.68
2023-01-18T10:28:55.362Z,0.10
2023-01-18T10:32:01.980Z,0.10
2023-01-18T10:35:45.309Z,0.40
2023-01-18T10:38:48.233Z,0.30
2023-01-18T10:41:51.433Z,0.47
2023-01-18T10:44:53.819Z,0.00
2023-01-18T10:47:57.914Z,0.20
2023-01-18T10:51:02.875Z,0.85
2023-01-18T10:54:27.302Z,1.17
2023-01-18T10:57:31.933Z,3.78
2023-01-18T11:00:35.434Z,0.10
2023-01-18T11:03:45.506Z,0.40
2023-01-18T11:06:53.880Z,0.30
2023-01-18T11:10:01.615Z,0.38
2023-01-18T11:13:12.159Z,0.40
2023-01-18T11:16:19.290Z,1.00
2023-01-18T11:19:22.489Z,0.13
2023-01-18T11:22:24.962Z,0.40
2023-01-18T11:25:36.642Z,0.40
2023-01-18T11:28:56.585Z,0.85
2023-01-18T11:32:06.013Z,0.70
2023-01-18T11:35:09.700Z,0.50
2023-01-18T11:38:21.238Z,1.08
2023-01-18T11:41:23.708Z,0.75
2023-01-18T11:44:29.883Z,1.70
2023-01-18T11:47:40.640Z,0.60
2023-01-18T11:50:47.329Z,0.57
2023-01-18T11:53:59.708Z,0.28
2023-01-18T11:57:03.180Z,0.43
2023-01-18T12:00:13.698Z,0.52
2023-01-18T12:03:22.405Z,0.57
2023-01-18T12:06:30.728Z,1.23
2023-01-18T12:09:55.235Z,4.82
2023-01-18T12:13:22.811Z,1.02
2023-01-18T12:16:42.740Z,0.93
2023-01-18T12:20:10.121Z,0.90
2023-01-18T12:23:50.027Z,0.50
2023-01-18T12:26:53.797Z,1.15
2023-01-18T12:30:14.353Z,1.08
2023-01-18T12:33:45.681Z,1.17
2023-01-18T12:37:20.183Z,0.53
2023-01-18T12:40:37.947Z,0.57
2023-01-18T12:43:57.616Z,0.30
2023-01-18T12:47:07.767Z,0.95
2023-01-18T12:50:23.271Z,0.85
2023-01-18T12:54:26.955Z,2.53
2023-01-18T12:57:29.999Z,0.77
2023-01-18T13:00:38.662Z,0.95
2023-01-18T13:03:44.864Z,1.52
2023-01-18T13:06:50.738Z,1.20
2023-01-18T13:09:53.960Z,1.33
2023-01-18T13:12:57.403Z,2.30
2023-01-18T13:16:09.918Z,3.05
2023-01-18T13:19:23.260Z,3.22
2023-01-18T13:22:50.474Z,2.58
2023-01-18T13:26:01.982Z,1.20
2023-01-18T13:29:14.542Z,1.13
2023-01-18T13:32:37.642Z,0.35
2023-01-18T13:35:58.687Z,1.00
2023-01-18T13:39:06.951Z,0.60
2023-01-18T13:42:24.638Z,0.57
2023-01-18T13:45:30.561Z,1.30
2023-01-18T13:48:48.056Z,0.85
2023-01-18T13:51:52.230Z,1.13
2023-01-18T13:54:54.960Z,1.77
2023-01-18T13:57:58.291Z,0.97
2023-01-18T14:01:05.954Z,0.90
2023-01-18T14:04:29.642Z,0.68
2023-01-18T14:07:39.047Z,1.05
2023-01-18T14:10:47.353Z,0.50
2023-01-18T14:13:55.559Z,0.67
2023-01-18T14:17:00.738Z,0.20
2023-01-18T14:20:37.062Z,0.43
2023-01-18T14:24:01.427Z,0.38
2023-01-18T14:27:04.997Z,0.82
2023-01-18T14:30:14.149Z,1.17
2023-01-18T14:33:16.505Z,1.40
2023-01-18T14:36:21.617Z,0.73
2023-01-18T14:39:24.394Z,0.30
2023-01-18T14:42:27.305Z,0.35
2023-01-18T14:45:37.769Z,1.17
2023-01-18T14:48:51.662Z,1.85
2023-01-18T14:51:54.658Z,1.35
2023-01-18T14:54:57.115Z,0.85
2023-01-18T14:58:14.159Z,0.45
2023-01-18T15:01:31.864Z,0.90
2023-01-18T15:04:38.821Z,0.60
2023-01-18T15:07:41.510Z,1.08
2023-01-18T15:10:44.357Z,0.25
2023-01-18T15:13:50.298Z,0.50
2023-01-18T15:16:54.625Z,0.53
2023-01-18T15:19:59.739Z,0.35
2023-01-18T15:23:02.444Z,1.13
2023-01-18T15:26:06.286Z,2.00
2023-01-18T15:29:14.598Z,1.35
2023-01-18T15:32:22.216Z,0.63
2023-01-18T15:38:35.733Z,0.63
2023-01-18T15:41:39.491Z,2.00
2023-01-18T15:44:50.574Z,1.10
2023-01-18T15:47:59.909Z,0.97
2023-01-18T15:51:07.792Z,0.35
2023-01-18T15:54:16.547Z,0.45
2023-01-18T15:57:19.780Z,0.88
2023-01-18T16:00:27.890Z,0.65
2023-01-18T16:04:00.949Z,0.27
2023-01-18T16:07:26.286Z,0.95
2023-01-18T16:10:30.440Z,3.53
2023-01-18T16:13:36.261Z,6.00
2023-01-18T16:16:42.260Z,5.68
2023-01-18T16:19:47.564Z,4.40
2023-01-18T16:22:53.664Z,5.10
2023-01-18T16:26:03.867Z,4.72
2023-01-18T16:29:08.188Z,3.38
2023-01-18T16:32:22.948Z,2.78
2023-01-18T16:35:25.658Z,2.87
2023-01-18T16:38:28.244Z,2.35
2023-01-18T16:41:32.304Z,2.75
2023-01-18T16:44:36.153Z,3.00
2023-01-18T16:47:38.850Z,3.53
2023-01-18T16:50:42.716Z,2.33
2023-01-18T16:53:45.761Z,4.85
2023-01-18T16:56:48.917Z,5.97
2023-01-18T16:59:51.409Z,5.13
2023-01-18T17:02:53.945Z,5.45
2023-01-18T17:05:56.540Z,3.47
2023-01-18T17:08:58.950Z,4.97
2023-01-18T17:12:01.378Z,6.82
2023-01-18T17:15:04.105Z,7.78
2023-01-18T17:18:08.360Z,12.90
2023-01-18T17:21:11.985Z,10.47
2023-01-18T17:24:15.197Z,9.15
2023-01-18T17:27:18.906Z,8.18
2023-01-18T17:30:22.171Z,11.85
2023-01-18T17:33:25.486Z,46.00
2023-01-18T17:36:28.072Z,21.03
2023-01-18T17:39:43.840Z,13.65
2023-01-18T17:42:52.908Z,13.32
2023-01-18T17:46:01.451Z,26.58
2023-01-18T17:49:04.568Z,45.15
2023-01-18T17:52:07.646Z,22.07
2023-01-18T17:55:12.163Z,18.75
2023-01-18T17:58:14.918Z,14.52
2023-01-18T18:01:17.766Z,22.23
2023-01-18T18:04:20.461Z,21.83
2023-01-18T18:07:22.906Z,26.57
2023-01-18T18:10:25.323Z,27.05
2023-01-18T18:13:29.562Z,34.35
2023-01-18T18:16:34.442Z,24.85
2023-01-18T18:19:41.370Z,27.10
2023-01-18T18:22:44.344Z,29.17
2023-01-18T18:25:48.101Z,19.42
2023-01-18T18:28:50.582Z,19.35
2023-01-18T18:31:53.397Z,15.88
2023-01-18T18:34:56.002Z,16.63
2023-01-18T18:44:38.703Z,11.98
2023-01-18T18:47:41.545Z,25.75
2023-01-18T18:50:44.048Z,31.58
2023-01-18T18:53:46.478Z,31.27
2023-01-18T18:56:49.122Z,12.82
2023-01-18T18:59:51.518Z,17.27
2023-01-18T19:02:59.013Z,23.02
2023-01-18T19:06:01.865Z,19.95
2023-01-18T19:09:05.706Z,66.87
2023-01-18T19:12:08.670Z,29.30
2023-01-18T19:15:11.571Z,11.77
2023-01-18T19:18:14.883Z,12.65
2023-01-18T19:21:18.447Z,18.55
2023-01-18T19:24:21.567Z,11.03
2023-01-18T19:27:24.664Z,12.25
2023-01-18T19:30:27.665Z,12.43
2023-01-18T19:33:30.436Z,12.55
2023-01-18T19:36:34.064Z,11.75
2023-01-18T19:39:36.796Z,10.53
2023-01-18T19:42:39.991Z,13.23
2023-01-18T19:45:42.704Z,24.52
2023-01-18T19:48:46.852Z,18.23
2023-01-18T19:51:51.770Z,13.25
2023-01-18T19:54:54.587Z,14.03
2023-01-18T19:57:58.265Z,12.23
2023-01-18T20:01:10.597Z,15.45
2023-01-18T20:04:13.760Z,13.40
2023-01-18T20:07:16.710Z,16.23
2023-01-18T20:10:20.386Z,15.70
2023-01-18T20:13:23.345Z,13.65
2023-01-18T20:16:26.141Z,11.18
2023-01-18T20:19:28.563Z,9.90
2023-01-18T20:22:31.544Z,11.75
2023-01-18T20:25:34.172Z,10.57
2023-01-18T20:28:37.278Z,15.43
2023-01-18T20:31:41.058Z,18.75
2023-01-18T20:34:47.012Z,13.73
2023-01-18T20:37:50.126Z,14.27
2023-01-18T20:40:54.698Z,14.07
2023-01-18T20:43:58.124Z,13.77
2023-01-18T20:47:00.811Z,9.35
2023-01-18T20:50:04.646Z,15.82
2023-01-18T20:53:08.002Z,17.05
2023-01-18T20:56:27.893Z,11.83
2023-01-18T20:59:31.820Z,14.27
2023-01-18T21:02:34.430Z,14.30
2023-01-18T21:05:37.138Z,11.88
2023-01-18T21:08:39.983Z,13.85
2023-01-18T21:11:42.717Z,11.50
2023-01-18T21:14:46.389Z,10.02
2023-01-18T21:17:48.866Z,8.90
2023-01-18T21:20:56.142Z,8.20
2023-01-18T21:23:59.407Z,12.15
2023-01-18T21:27:01.758Z,9.13
2023-01-18T21:30:04.511Z,7.78
2023-01-18T21:33:09.886Z,7.32
2023-01-18T21:36:15.055Z,5.88
2023-01-18T21:39:25.228Z,7.25
2023-01-18T21:42:47.197Z,6.07
2023-01-18T21:45:55.513Z,6.22
2023-01-18T21:49:02.750Z,7.57
2023-01-18T21:52:24.125Z,9.02
2023-01-18T21:55:26.584Z,6.20
2023-01-18T21:58:47.280Z,7.20
2023-01-18T22:01:49.987Z,6.45
2023-01-18T22:05:03.539Z,8.63
2023-01-18T22:08:06.074Z,7.00
2023-01-18T22:11:08.483Z,8.35
2023-01-18T22:14:11.360Z,8.27
2023-01-18T22:17:13.918Z,8.52
2023-01-18T22:20:17.075Z,6.38
2023-01-18T22:23:19.470Z,8.23
2023-01-18T22:26:23.307Z,8.07
2023-01-18T22:29:25.699Z,10.70
2023-01-18T22:32:28.120Z,7.28
2023-01-18T22:35:31.463Z,8.88
2023-01-18T22:38:33.981Z,7.25
2023-01-18T22:41:36.425Z,6.65
2023-01-18T22:44:38.816Z,7.37
2023-01-18T22:47:41.244Z,7.20
2023-01-18T22:50:44.358Z,7.47
2023-01-18T22:53:47.984Z,6.95
2023-01-18T22:56:50.458Z,6.40
2023-01-18T22:59:52.877Z,5.73
2023-01-18T23:02:55.328Z,5.97
2023-01-18T23:05:59.449Z,5.55
2023-01-18T23:09:01.970Z,6.38
2023-01-18T23:12:04.703Z,6.72
2023-01-18T23:15:25.940Z,6.93
2023-01-18T23:18:28.724Z,6.63
2023-01-18T23:21:31.167Z,10.00
2023-01-18T23:24:37.424Z,7.90
2023-01-18T23:27:39.884Z,7.70
2023-01-18T23:30:42.271Z,7.63
2023-01-18T23:33:45.071Z,5.70
2023-01-18T23:36:47.492Z,5.68
2023-01-18T23:40:08.647Z,5.50
2023-01-18T23:43:29.644Z,7.60
2023-01-18T23:46:50.474Z,8.47
2023-01-18T23:50:11.565Z,6.10
2023-01-18T23:53:32.485Z,4.53
2023-01-18T23:56:35.030Z,5.32
2023-01-18T23:59:37.788Z,5.85
